Frenchtown, Montana
Current Conditions -  °F | °C
As of 11:53 AM on Friday 28 Nov 2014 (Local Time) from KMSO Reporting Station
Overcast Overcast  
Wind Chill: 44°   Ceiling: 3900
Heat Index: 47°   Visibility: 10mi
Dew Point: 41°   Wind: 7mph
Humidity: 80%   Direction: 90°E
Pressure: 29.6"   Gusts: NA
Location:  47.01°N, 114.23°W
Report Text: KMSO 281853Z 09006KT 10SM BKN039 BKN050 OVC060 08/05 A2960 RMK AO2 RAB34E49 SLP027 P0000 T00830050
Loading
Personal Weather Stations






























Interactive Weather Map New forecast layout! Learn more

10-Day Weather Forecast

Advertisements
Track Severe Weather on mobile